Suggestion Search

Define a bounding box (note: it will not wrap North/South over poles). If the range is zero degrees, a bounding box will not be used to constrain the search.

Centered On °   °

Match text in the suggestion title, science rationale or special notes. The search is case-insensitive. % is a wildcard (_ for a single character).

Find
Search

You may select science themes to limit query, otherwise suggestions from all themes will be returned.

Multiple values may be selected (shift + click).

  Rows per page
77,214 records found, displaying 501 to 600.[First/Prev] 2, 3, 4, 5, 6, 7, 8, 9 [Next/Last]
ID Suggestion Title Latitude Longitude Repeat Created Observation ID username
766 Crater ejecta overlapping filled crater -30.869 134.790 1 2005-10-20 ESP_020252_1490 kkolb
767 Concentric trough in crater fill eroding rim-inwards. -47.078 4.303 1 2005-10-21 PSP_002179_1330 dundas
768 Layered stepped buttes in Crommelin Crater 4.764 349.674 1 2005-10-29 PSP_001401_1850 dundas
769 Landslides in Ophir Chasma -4.165 288.497 1 2005-10-22 PSP_003131_1755 mcewen
773 Chaotic terrain southwest of Aram Chaos -0.442 337.505 1 2005-10-24 ESP_011792_1795 nicolast
774 Valley-like structures on floor of Aram Chaos 1.738 339.268 1 2006-02-17 ESP_048081_1820 nicolast
775 Scarps in layered deposits in Arabia region 5.523 353.246 1 2005-10-24 ESP_038982_1855 dundas
776 Layered deposits armored by crater ejecta 6.912 357.789 1 2005-10-24 PSP_008508_1870 dundas
777 Northern rim and terraces of Mojave Crater 7.586 327.322 1 2005-10-24 PSP_002668_1875 bridges
779 Layered deposits in Crommelin Crater with eroded troughs 5.167 350.057 STEREO 2005-10-25 PSP_001876_1850 russell
780 Possible layering in block material in Hydraotes Chaos 1.898 323.987 1 2005-10-25 ESP_014166_1820 nicolast
782 Hydaspis Chaos - search for layering in chaotic terrain 2.129 334.112 1 2005-10-25 PSP_005727_1820 nicolast
783 Layered deposit in Crommlin Crater 4.993 350.490 STEREO 2005-10-25 PSP_003432_1850 russell
785 Collapse and flow of materials in Hydaspis Chaos 1.753 335.633 1 2005-10-25 PSP_007586_1820 nicolast
787 Deposits layered at several scales -5.537 286.749 STEREO 2005-10-25 PSP_009038_1745 dundas
788 Periglacial landforms -58.620 57.131 1 2005-10-26 PSP_002731_1210 alxla
789 Scallops -58.126 67.504 1 2005-11-07 ESP_047287_1215 alxla
790 Reull Valles terraces -38.069 111.808 STEREO 2006-03-16 PSP_006566_1415 chrisokubo
791 Deposits inside rim of Holden crater, likely associated with channels. -26.239 324.869 1 2005-10-26 PSP_007191_1535 dundas
792 Hadriaca Patera caldera wall -30.387 92.373 1 2005-10-26 ESP_012711_1495 dundas
793 Light patterned deposit -32.914 71.377 1 2005-10-26 ESP_026887_1465 dundas
794 Layering in north polar layered deposits 86.507 81.174 STEREO 2006-01-11 PSP_001686_2665 russell
795 Layering in north polar layered deposits 87.049 95.858 STEREO 2006-01-06 PSP_001630_2730 russell
796 Layering in north polar layered deposits 87.013 175.152 STEREO 2006-01-06 PSP_001616_2670 russell
797 Layering in north polar layered deposits 87.014 195.356 STEREO 2006-01-06 PSP_001760_2670 russell
798 Layering in north polar layered deposits 87.101 358.562 STEREO 2006-01-06 PSP_001530_2670 russell
799 Layering in north polar layered deposits 86.178 232.363 STEREO 2006-01-06 PSP_001390_2660 russell
800 Layering in north polar layered deposits 87.046 280.754 STEREO 2006-01-06 PSP_001454_2670 russell
801 Layering in north polar layered deposits 83.777 276.604 STEREO 2006-01-06 PSP_001640_2640 russell
802 Layering in north polar layered deposits 84.124 259.714 STEREO 2006-01-06 PSP_001636_2760 russell
803 Light-toned tilted layering in central peak of Oudemans Crater -10.010 267.979 1 2005-10-27 PSP_007694_1700 cweitz
804 Pits at the head of the Hephaestus Fossae 17.438 127.153 1 2005-10-27 PSP_007264_1975 laz
805 Channels in southern Utopia Planitia 18.376 125.362 1 2005-10-27 ESP_013237_1985 laz
806 Layered and lineated features in Hellas Planitia -39.064 83.012 1 2005-10-28 ESP_026491_1405 dundas
807 Banded feature with debris mantle near Hellas region -39.552 83.217 1 2005-10-28 ESP_017142_1400 dundas
808 Gully alcoves downslope from each other -37.198 190.849 STEREO 2005-10-29 ESP_048113_1425 kkolb
809 Crater in Gorgonum Chaos -37.205 190.726 1 2005-10-29 ESP_048759_1425 kkolb
810 Gullies in Gorgonum Chaos -37.548 189.760 1 2005-10-29 PSP_005983_1420 kkolb
811 Gullies in Gorgonum Chaos mesas -37.064 189.652 STEREO 2005-10-29 ESP_012747_1425 kkolb
812 Gullies in Gorgonum Chaos mesas -36.851 189.738 STEREO 2006-02-17 PSP_004071_1425 kkolb
813 gullies in Gorgonum Chaos mesas -37.173 189.514 STEREO 2005-10-29 PSP_001948_1425 kkolb
814 gullies in Gorgonum Chaos mesas -37.127 190.033 STEREO 2005-10-29 PSP_008198_1425 kkolb
815 Discontinuity in depth in Scamander Vallis 16.720 28.616 1 2005-10-30 ESP_013201_1970 kkolb
816 Breached impact crater rim 16.909 26.709 1 2005-10-30 ESP_011355_1970 kkolb
817 Rampart crater and nearby channel 18.986 27.088 1 2006-03-09 ESP_057112_1990 kkolb
819 Streamlined feature cut by Marte Vallis 11.479 181.060 1 2005-10-30 ESP_027674_1915 mcewen
820 Short dendritic channels near edge of Marte Vallis 10.629 181.226 1 2005-10-30 ESP_012813_1905 mcewen
821 Small cataract in Marte Valles 10.070 181.651 1 2005-10-30 ESP_024707_1900 mcewen
822 Cluster of small impact craters 10.064 181.068 1 2005-10-30 PSP_008119_1900 mcewen
823 Bright and dark slope streaks 11.101 180.616 1 2005-10-30 ESP_016347_1910 mcewen
824 Marte Vallis channel and lava flows 11.942 182.843 1 2005-10-30 ESP_057225_1920 mcewen
825 Sparsely-cratered large crater 1.089 183.223 1 2005-10-30 PSP_004493_1810 mcewen
826 Medusae Fossae formation contact -5.612 182.308 1 2005-10-30 PSP_006260_1745 mcewen
827 Valley networks joining Palos Crater -3.097 110.495 1 2005-10-31 PSP_005366_1770 kkolb
828 Flow features leaving Palos Crater -2.254 110.717 STEREO 2005-10-31 PSP_003810_1775 kkolb
829 Search for layering on Palos Crater?s walls -2.431 110.927 1 2005-10-31 PSP_003810_1775 kkolb
830 Cemented dunes in Herschel Crater with eroded grooves -15.085 131.889 1 2005-11-01 PSP_002728_1645 dundas
831 Oudemans Crater central uplift -9.841 267.945 STEREO 2006-03-16 ESP_011676_1700 chrisokubo
832 Tilted and faulted layers in Oudemans Crater -9.925 268.052 1 2006-03-16 PSP_001668_1700 chrisokubo
833 Mesas in Huo Hsing Vallis 27.115 66.749 1 2005-11-03 PSP_007688_2075 chrisokubo
834 Jointed bedrock in Huo Hsing Vallis 27.139 66.900 1 2005-11-03 PSP_001662_2075 chrisokubo
835 Colorful mesas and ridges in Huo Hsing Vallis 27.552 67.071 1 2005-11-03 PSP_008189_2080 chrisokubo
836 Huo Hsing Vallis 27.705 66.962 1 2005-11-03 PSP_004840_2080 chrisokubo
837 Exhumed faults in Huo Hsing Vallis 27.729 67.340 STEREO 2005-11-03 PSP_001596_2080 chrisokubo
838 Huo Hsing Vallis 26.310 66.537 1 2005-11-03 PSP_009336_2065 chrisokubo
839 Huo Hsing Vallis 26.440 66.595 1 2005-11-03 PSP_003495_2065 chrisokubo
840 Huo Hsing Vallis 26.192 66.466 1 2005-11-03 ESP_019674_2065 chrisokubo
841 Huo Hsing Vallis 26.077 66.390 1 2005-11-03 PSP_010114_2065 chrisokubo
842 Huo Hsing Vallis 25.991 66.306 1 2005-11-03 ESP_019318_2065 chrisokubo
843 Concentric crater material in southern highlands -38.506 65.692 1 2005-11-03 PSP_001504_1410 dundas
844 Color and physical properties of north polar residual ice surface 82.031 19.970 8 2006-01-11 PSP_001618_2780 russell
845 Color and physical properties of north polar residual ice surface 85.032 41.257 8 2006-01-11 PSP_001622_2650 russell
849 Lobate debris apron with ridge-like structures 51.786 289.213 STEREO 2006-02-24 PSP_002590_2320 chuang
850 Lobate debris apron with ridge-like structures in Tempe Terra 51.251 288.886 STEREO 2006-02-24 PSP_009064_2315 chuang
852 Debris apron surface texture 45.567 275.651 1 2006-02-25 PSP_007232_2260 chuang
853 Debris apron surface texture in Tempe-Mareotis region 49.393 279.927 1 2006-02-25 PSP_006744_2295 chuang
854 Thermokarst features -58.142 58.078 1 2005-11-07 PSP_005421_1215 alxla
856 Filled crater and fretted terrain -57.087 60.611 1 2005-11-07 PSP_003522_1225 alxla
857 Degraded terrain and possible thermokarst on Eilat crater ejecta -56.206 50.208 STEREO 2005-11-07 PSP_004340_1235 alxla
859 Possible sublimated terrain -60.287 45.448 1 2005-11-07 PSP_001782_1195 alxla
860 Scallop-shaped degraded terrain features -58.610 65.819 1 2005-11-07 ESP_046575_1210 alxla
861 Scallops on crater rim -57.847 68.329 1 2005-11-07 ESP_039151_1220 alxla
863 Scallops and sublimation features -60.104 79.819 1 2005-11-07 PSP_001662_1195 alxla
864 Possible thermokarst -60.092 82.032 1 2005-11-07 PSP_002862_1195 alxla
865 Layers in Spallanzani Crater -57.982 86.545 STEREO 2005-11-07 PSP_001345_1215 alxla
866 Layers in Spallanzani Crater -58.040 86.371 STEREO 2005-11-07 PSP_003442_1215 alxla
867 Valley tributary 4.864 115.979 1 2005-11-07 ESP_036076_1850 kkolb
868 Craters with valley 0.292 89.558 1 2005-11-07 ESP_016957_1805 kkolb
869 Craters with valley on both ends - south end -0.394 89.627 1 2005-11-07 PSP_003402_1795 kkolb
870 Chaos at head of Ravi Vallis -1.305 316.567 1 2005-11-07 PSP_002286_1785 kkolb
872 Layers in Spallanzani Crater -58.128 86.798 STEREO 2005-11-08 ESP_013041_1215 alxla
873 Layers in Spallanzani Crater -57.891 86.175 1 2005-11-08 ESP_046482_1220 alxla
875 Fretted terrains -42.562 118.276 STEREO 2005-11-09 ESP_024103_1370 alxla
876 Fretted terrain -42.036 117.328 1 2005-11-09 PSP_007581_1375 alxla
877 Central pit in Asimov Crater showing dark layers -46.781 5.012 1 2005-11-08 PSP_001968_1325 dundas
879 Semicircular trough created by rim-inward erosion of crater fill -47.510 5.279 1 2006-01-18 PSP_002390_1320 dundas
880 Sample depression at the head of Hephaestus Fossae 17.573 126.935 1 2005-11-08 PSP_005840_1975 laz
883 Fretted terrain -41.991 116.399 STEREO 2005-11-09 ESP_028613_1375 alxla
885 Fretted terrains -42.178 115.827 1 2005-11-09 PSP_007647_1375 alxla
886 Fretted terrains -41.255 116.877 1 2005-11-09 ESP_064810_1385 alxla

Each suggestion is given a unique ID. A stereo suggestion will be made into a pair at the discretion of the Science Theme Lead.

Suggestion title.

Latitudes are expressed in planetocentric degrees.

Longitude are measured in degrees and range east from 0 to 360.

1 for a single suggestion, STEREO for a stereo suggestion, otherwise the number of suggestions in a seasonal or other repeat set.

The date on which the suggestion was created.

If the suggestion has been retired, a link to the observation page.

The username of the suggester.